Time,TemperatureF,DewpointF,PressureIn,WindDirection,WindDirectionDegrees,WindSpeedMPH,WindSpeedGustMPH,Humidity,HourlyPrecipIn,Conditions,Clouds,dailyrainin,SoftwareType,DateUTC
2013-02-20 00:17:00,6.6,-5.1,30.28,NNW,337,0.0,0.0,58,0.00,,,0.00,open2300-1.11,2013-02-20 06:17:00,
2013-02-20 00:27:00,6.6,-5.1,30.29,NNW,337,0.0,0.0,58,0.00,,,0.00,open2300-1.11,2013-02-20 06:27:00,
2013-02-20 00:37:00,6.4,-4.9,30.28,NNW,337,0.0,0.0,59,0.00,,,0.00,open2300-1.11,2013-02-20 06:37:00,
2013-02-20 00:47:00,177.4,99.9,30.29,NNW,337,0.0,0.0,100,0.00,,,0.00,open2300-1.11,2013-02-20 06:47:00,
2013-02-20 00:57:00,177.4,99.9,30.30,NNW,337,0.0,0.0,100,0.00,,,0.00,open2300-1.11,2013-02-20 06:57:00,
2013-02-20 01:07:00,6.4,-4.9,30.30,NNW,337,0.0,0.0,59,0.00,,,0.00,open2300-1.11,2013-02-20 07:07:00,
2013-02-20 01:17:00,6.4,-4.9,30.31,NNW,337,0.0,0.0,59,0.00,,,0.00,open2300-1.11,2013-02-20 07:17:00,
2013-02-20 01:27:00,6.4,-4.9,30.31,NNW,337,0.0,0.0,59,0.00,,,0.00,open2300-1.11,2013-02-20 07:27:00,
2013-02-20 01:37:00,6.1,-5.3,30.31,NNW,337,0.0,0.0,59,0.00,,,0.00,open2300-1.11,2013-02-20 07:37:00,
2013-02-20 01:47:00,5.7,-5.6,30.32,NNW,337,0.0,0.0,59,0.00,,,0.00,open2300-1.11,2013-02-20 07:47:00,
2013-02-20 01:57:00,5.5,-5.8,30.33,NNW,337,0.0,0.0,59,0.00,,,0.00,open2300-1.11,2013-02-20 07:57:00,
2013-02-20 02:07:00,5.2,-5.8,30.33,NNW,337,0.0,0.0,60,0.00,,,0.00,open2300-1.11,2013-02-20 08:07:00,
2013-02-20 02:17:00,5.0,-6.0,30.34,NNW,337,0.0,0.0,60,0.00,,,0.00,open2300-1.11,2013-02-20 08:17:00,
2013-02-20 02:27:00,4.8,-6.1,30.34,NNW,337,0.0,0.0,60,0.00,,,0.00,open2300-1.11,2013-02-20 08:27:00,
2013-02-20 02:37:00,4.3,-6.6,30.34,NNW,337,0.0,0.0,60,0.00,,,0.00,open2300-1.11,2013-02-20 08:37:00,
2013-02-20 02:47:00,3.9,-6.9,30.34,NNW,337,0.0,0.0,60,0.00,,,0.00,open2300-1.11,2013-02-20 08:47:00,
2013-02-20 02:57:00,3.7,-7.1,30.35,NNW,337,0.0,0.0,60,0.00,,,0.00,open2300-1.11,2013-02-20 08:57:00,
2013-02-20 03:07:00,3.6,-7.3,30.35,NNW,337,0.0,0.0,60,0.00,,,0.00,open2300-1.11,2013-02-20 09:07:00,
2013-02-20 03:17:00,3.6,-7.3,30.35,NNW,337,0.0,0.0,60,0.00,,,0.00,open2300-1.11,2013-02-20 09:17:00,
2013-02-20 03:27:00,3.6,-6.9,30.36,NNW,337,0.0,0.0,61,0.00,,,0.00,open2300-1.11,2013-02-20 09:27:00,
2013-02-20 03:37:00,3.7,-6.8,30.36,NNW,337,0.0,0.0,61,0.00,,,0.00,open2300-1.11,2013-02-20 09:37:00,
2013-02-20 03:47:00,3.7,-6.8,30.36,NNW,337,0.0,0.0,61,0.00,,,0.00,open2300-1.11,2013-02-20 09:47:00,
2013-02-20 03:57:00,3.6,-6.9,30.36,NNW,337,0.0,0.0,61,0.00,,,0.00,open2300-1.11,2013-02-20 09:57:00,
2013-02-20 04:07:00,3.7,-6.8,30.36,NNW,337,0.0,0.0,61,0.00,,,0.00,open2300-1.11,2013-02-20 10:07:00,
2013-02-20 04:17:00,3.6,-6.9,30.36,NNW,337,0.0,0.0,61,0.00,,,0.00,open2300-1.11,2013-02-20 10:17:00,
2013-02-20 04:27:00,3.6,-6.9,30.36,NNW,337,0.0,0.0,61,0.00,,,0.00,open2300-1.11,2013-02-20 10:27:00,
2013-02-20 04:37:00,3.4,-7.1,30.36,NNW,337,0.0,0.0,61,0.00,,,0.00,open2300-1.11,2013-02-20 10:37:00,
2013-02-20 04:47:00,3.4,-6.8,30.37,NNW,337,0.0,0.0,62,0.00,,,0.00,open2300-1.11,2013-02-20 10:47:00,
2013-02-20 05:07:00,2.8,-7.3,30.37,NNW,337,0.0,0.0,62,0.00,,,0.00,open2300-1.11,2013-02-20 11:07:00,
2013-02-20 05:17:00,2.5,-7.7,30.38,NNW,337,0.0,0.0,62,0.00,,,0.00,open2300-1.11,2013-02-20 11:17:00,
2013-02-20 05:27:00,2.5,-7.7,30.37,NNW,337,0.0,0.0,62,0.00,,,0.00,open2300-1.11,2013-02-20 11:27:00,
2013-02-20 05:37:00,2.1,-8.0,30.38,NNW,337,0.0,0.0,62,0.00,,,0.00,open2300-1.11,2013-02-20 11:37:00,
2013-02-20 05:47:00,2.3,-7.8,30.38,NNW,337,0.0,0.0,62,0.00,,,0.00,open2300-1.11,2013-02-20 11:47:00,
2013-02-20 05:57:00,2.3,-7.8,30.38,NNW,337,0.0,0.0,62,0.00,,,0.00,open2300-1.11,2013-02-20 11:57:00,
2013-02-20 06:07:00,2.3,-7.8,30.39,NNW,337,0.0,0.0,62,0.00,,,0.00,open2300-1.11,2013-02-20 12:07:00,
2013-02-20 06:17:00,176.9,99.9,30.39,NNW,337,0.0,0.0,100,0.00,,,0.00,open2300-1.11,2013-02-20 12:17:00,
2013-02-20 06:27:00,176.9,99.9,30.39,NNW,337,0.0,0.0,100,0.00,,,0.00,open2300-1.11,2013-02-20 12:27:00,
2013-02-20 06:37:00,176.9,99.9,30.39,NNW,337,0.0,0.0,100,0.00,,,0.00,open2300-1.11,2013-02-20 12:37:00,
2013-02-20 06:47:00,1.9,-7.6,30.40,NNW,337,0.0,0.0,64,0.00,,,0.00,open2300-1.11,2013-02-20 12:47:00,
2013-02-20 06:57:00,1.8,-7.7,30.40,NNW,337,0.0,0.0,64,0.00,,,0.00,open2300-1.11,2013-02-20 12:57:00,
2013-02-20 07:07:00,1.6,-7.9,30.41,NNW,337,0.0,0.0,64,0.00,,,0.00,open2300-1.11,2013-02-20 13:07:00,
2013-02-20 07:17:00,1.8,-7.7,30.41,NNW,337,0.0,0.0,64,0.00,,,0.00,open2300-1.11,2013-02-20 13:17:00,
2013-02-20 07:27:00,1.8,-7.7,30.40,NNW,337,0.0,0.0,64,0.00,,,0.00,open2300-1.11,2013-02-20 13:27:00,
2013-02-20 07:37:00,2.1,-7.4,30.39,NNW,337,0.0,0.0,64,0.00,,,0.00,open2300-1.11,2013-02-20 13:37:00,
2013-02-20 07:47:00,2.5,-7.0,30.40,NNW,337,0.0,0.0,64,0.00,,,0.00,open2300-1.11,2013-02-20 13:47:00,
2013-02-20 07:57:00,2.8,-6.7,30.40,NNW,337,0.0,0.0,64,0.00,,,0.00,open2300-1.11,2013-02-20 13:57:00,
2013-02-20 08:07:00,3.4,-5.8,30.40,NNW,337,0.0,0.0,65,0.00,,,0.00,open2300-1.11,2013-02-20 14:07:00,
2013-02-20 08:17:00,3.4,-5.8,30.41,NNW,337,0.0,0.0,65,0.00,,,0.00,open2300-1.11,2013-02-20 14:17:00,
2013-02-20 08:27:00,3.7,-5.5,30.40,NNW,337,0.0,0.0,65,0.00,,,0.00,open2300-1.11,2013-02-20 14:27:00,
2013-02-20 08:37:00,176.5,99.9,30.39,NNW,337,0.0,0.0,100,0.00,,,0.00,open2300-1.11,2013-02-20 14:37:00,
2013-02-20 08:47:00,176.5,99.9,30.40,NNW,337,0.0,0.0,100,0.00,,,0.00,open2300-1.11,2013-02-20 14:47:00,
2013-02-20 08:57:00,176.5,99.9,30.39,NNW,337,0.0,0.0,100,0.00,,,0.00,open2300-1.11,2013-02-20 14:57:00,
2013-02-20 09:07:00,176.5,99.9,30.39,NNW,337,0.0,0.0,100,0.00,,,0.00,open2300-1.11,2013-02-20 15:07:00,
2013-02-20 09:17:00,176.5,99.9,30.40,NNW,337,0.0,0.0,100,0.00,,,0.00,open2300-1.11,2013-02-20 15:17:00,
2013-02-20 09:27:00,176.5,99.9,30.39,NNW,337,0.0,0.0,100,0.00,,,0.00,open2300-1.11,2013-02-20 15:27:00,
2013-02-20 09:37:00,176.5,99.9,30.40,NNW,337,0.0,0.0,100,0.00,,,0.00,open2300-1.11,2013-02-20 15:37:00,
2013-02-20 09:47:00,176.5,99.9,30.40,NNW,337,0.0,0.0,100,0.00,,,0.00,open2300-1.11,2013-02-20 15:47:00,
2013-02-20 09:57:00,8.6,-0.9,30.40,NNW,337,0.0,0.0,65,0.00,,,0.00,open2300-1.11,2013-02-20 15:57:00,
2013-02-20 10:07:00,9.7,0.5,30.39,NNW,337,0.0,0.0,66,0.00,,,0.00,open2300-1.11,2013-02-20 16:07:00,
2013-02-20 10:17:00,10.2,0.7,30.39,NNW,337,0.0,0.0,65,0.00,,,0.00,open2300-1.11,2013-02-20 16:17:00,
2013-02-20 10:27:00,11.8,2.2,30.39,NNW,337,0.0,0.0,65,0.00,,,0.00,open2300-1.11,2013-02-20 16:27:00,
2013-02-20 10:37:00,12.7,3.1,30.39,NNW,337,0.0,0.0,65,0.00,,,0.00,open2300-1.11,2013-02-20 16:37:00,
2013-02-20 10:47:00,12.9,3.0,30.39,NNW,337,0.0,0.0,64,0.00,,,0.00,open2300-1.11,2013-02-20 16:47:00,
2013-02-20 10:57:00,13.1,3.1,30.39,NNW,337,0.0,0.0,64,0.00,,,0.00,open2300-1.11,2013-02-20 16:57:00,
2013-02-20 11:07:00,13.1,3.1,30.39,NNW,337,0.0,0.0,64,0.00,,,0.00,open2300-1.11,2013-02-20 17:07:00,
2013-02-20 11:17:00,176.9,99.9,30.40,NNW,337,0.0,0.0,100,0.00,,,0.00,open2300-1.11,2013-02-20 17:17:00,
2013-02-20 11:27:00,176.9,99.9,30.40,NNW,337,0.0,0.0,100,0.00,,,0.00,open2300-1.11,2013-02-20 17:27:00,
2013-02-20 11:37:00,176.9,99.9,30.39,NNW,337,0.0,0.0,100,0.00,,,0.00,open2300-1.11,2013-02-20 17:37:00,
2013-02-20 11:47:00,176.9,99.9,30.40,NNW,337,0.0,0.0,100,0.00,,,0.00,open2300-1.11,2013-02-20 17:47:00,
2013-02-20 11:57:00,176.9,99.9,30.39,NNW,337,0.0,0.0,100,0.00,,,0.00,open2300-1.11,2013-02-20 17:57:00,
2013-02-20 12:07:00,176.9,99.9,30.39,NNW,337,0.0,0.0,100,0.00,,,0.00,open2300-1.11,2013-02-20 18:07:00,
2013-02-20 12:17:00,176.9,99.9,30.39,NNW,337,0.0,0.0,100,0.00,,,0.00,open2300-1.11,2013-02-20 18:17:00,
2013-02-20 12:27:00,176.9,99.9,30.39,NNW,337,0.0,0.0,100,0.00,,,0.00,open2300-1.11,2013-02-20 18:27:00,
2013-02-20 12:37:00,176.9,99.9,30.38,NNW,337,0.0,0.0,100,0.00,,,0.00,open2300-1.11,2013-02-20 18:37:00,
2013-02-20 12:47:00,176.9,99.9,30.38,NNW,337,0.0,0.0,100,0.00,,,0.00,open2300-1.11,2013-02-20 18:47:00,
2013-02-20 12:57:00,176.9,99.9,30.38,NNW,337,0.0,0.0,100,0.00,,,0.00,open2300-1.11,2013-02-20 18:57:00,
2013-02-20 13:07:00,176.9,99.9,30.38,NNW,337,0.0,0.0,100,0.00,,,0.00,open2300-1.11,2013-02-20 19:07:00,
2013-02-20 13:17:00,176.9,99.9,30.39,NNW,337,0.0,0.0,100,0.00,,,0.00,open2300-1.11,2013-02-20 19:17:00,
2013-02-20 13:27:00,176.9,99.9,30.38,NNW,337,0.0,0.0,100,0.00,,,0.00,open2300-1.11,2013-02-20 19:27:00,
2013-02-20 13:37:00,19.6,7.9,30.38,NNW,337,0.0,0.0,60,0.00,,,0.00,open2300-1.11,2013-02-20 19:37:00,
2013-02-20 13:47:00,19.6,7.9,30.38,NNW,337,0.0,0.0,60,0.00,,,0.00,open2300-1.11,2013-02-20 19:47:00,
2013-02-20 13:57:00,176.2,99.9,30.39,NNW,337,0.0,0.0,100,0.00,,,0.00,open2300-1.11,2013-02-20 19:57:00,
2013-02-20 14:07:00,176.2,99.9,30.39,NNW,337,0.0,0.0,100,0.00,,,0.00,open2300-1.11,2013-02-20 20:07:00,
2013-02-20 14:17:00,176.2,99.9,30.39,NNW,337,0.0,0.0,100,0.00,,,0.00,open2300-1.11,2013-02-20 20:17:00,
2013-02-20 14:27:00,176.2,99.9,30.40,NNW,337,0.0,0.0,100,0.00,,,0.00,open2300-1.11,2013-02-20 20:27:00,
2013-02-20 14:37:00,21.0,8.9,30.40,NNW,337,0.0,0.0,59,0.00,,,0.00,open2300-1.11,2013-02-20 20:37:00,
2013-02-20 14:47:00,21.7,9.6,30.40,NNW,337,0.0,0.0,59,0.00,,,0.00,open2300-1.11,2013-02-20 20:47:00,
2013-02-20 14:57:00,21.7,9.2,30.41,NNW,337,0.0,0.0,58,0.00,,,0.00,open2300-1.11,2013-02-20 20:57:00,
2013-02-20 15:07:00,176.5,99.9,30.41,NNW,337,0.0,0.0,100,0.00,,,0.00,open2300-1.11,2013-02-20 21:07:00,
2013-02-20 15:27:00,176.5,99.9,30.40,NNW,337,0.0,0.0,100,0.00,,,0.00,open2300-1.11,2013-02-20 21:27:00,
2013-02-20 15:37:00,21.4,8.4,30.40,NNW,337,0.0,0.0,57,0.00,,,0.00,open2300-1.11,2013-02-20 21:37:00,
2013-02-20 15:47:00,21.4,8.4,30.41,NNW,337,0.0,0.0,57,0.00,,,0.00,open2300-1.11,2013-02-20 21:47:00,
2013-02-20 15:57:00,176.2,99.9,30.41,NNW,337,0.0,0.0,100,0.00,,,0.00,open2300-1.11,2013-02-20 21:57:00,
2013-02-20 16:07:00,176.2,99.9,30.41,NNW,337,0.0,0.0,100,0.00,,,0.00,open2300-1.11,2013-02-20 22:07:00,
2013-02-20 16:17:00,176.2,99.9,30.41,NNW,337,0.0,0.0,100,0.00,,,0.00,open2300-1.11,2013-02-20 22:17:00,
2013-02-20 16:27:00,176.2,99.9,30.40,NNW,337,0.0,0.0,100,0.00,,,0.00,open2300-1.11,2013-02-20 22:27:00,
2013-02-20 16:37:00,176.2,99.9,30.40,NNW,337,0.0,0.0,100,0.00,,,0.00,open2300-1.11,2013-02-20 22:37:00,
2013-02-20 16:47:00,176.2,99.9,30.40,NNW,337,0.0,0.0,100,0.00,,,0.00,open2300-1.11,2013-02-20 22:47:00,
2013-02-20 16:57:00,19.8,7.2,30.41,NNW,337,0.0,0.0,58,0.00,,,0.00,open2300-1.11,2013-02-20 22:57:00,
2013-02-20 17:07:00,19.6,7.1,30.40,NNW,337,0.0,0.0,58,0.00,,,0.00,open2300-1.11,2013-02-20 23:07:00,
2013-02-20 17:17:00,19.6,7.1,30.40,NNW,337,0.0,0.0,58,0.00,,,0.00,open2300-1.11,2013-02-20 23:17:00,
2013-02-20 17:27:00,19.6,7.1,30.40,NNW,337,0.0,0.0,58,0.00,,,0.00,open2300-1.11,2013-02-20 23:27:00,
2013-02-20 17:37:00,19.6,7.5,30.40,NNW,337,0.0,0.0,59,0.00,,,0.00,open2300-1.11,2013-02-20 23:37:00,
2013-02-20 17:47:00,19.6,7.5,30.40,NNW,337,0.0,0.0,59,0.00,,,0.00,open2300-1.11,2013-02-20 23:47:00,
2013-02-20 17:57:00,18.9,6.8,30.40,NNW,337,0.0,0.0,59,0.00,,,0.00,open2300-1.11,2013-02-20 23:57:00,
2013-02-20 18:07:00,18.7,6.7,30.39,NNW,337,0.0,0.0,59,0.00,,,0.00,open2300-1.11,2013-02-21 00:07:00,
2013-02-20 18:17:00,18.5,6.5,30.39,NNW,337,0.0,0.0,59,0.00,,,0.00,open2300-1.11,2013-02-21 00:17:00,
2013-02-20 18:27:00,18.3,6.7,30.39,NNW,337,0.0,0.0,60,0.00,,,0.00,open2300-1.11,2013-02-21 00:27:00,
2013-02-20 18:37:00,18.0,6.4,30.39,NNW,337,0.0,0.0,60,0.00,,,0.00,open2300-1.11,2013-02-21 00:37:00,
2013-02-20 18:47:00,176.4,99.9,30.38,NNW,337,0.0,0.0,100,0.00,,,0.00,open2300-1.11,2013-02-21 00:47:00,
2013-02-20 18:57:00,176.4,99.9,30.39,NNW,337,0.0,0.0,100,0.00,,,0.00,open2300-1.11,2013-02-21 00:57:00,
2013-02-20 19:07:00,17.4,6.2,30.38,NNW,337,0.0,0.0,61,0.00,,,0.00,open2300-1.11,2013-02-21 01:07:00,
2013-02-20 19:17:00,17.4,6.2,30.38,NNW,337,0.0,0.0,61,0.00,,,0.00,open2300-1.11,2013-02-21 01:17:00,
2013-02-20 19:27:00,17.8,6.6,30.38,NNW,337,0.0,0.0,61,0.00,,,0.00,open2300-1.11,2013-02-21 01:27:00,
2013-02-20 19:37:00,17.8,6.6,30.38,NNW,337,0.0,0.0,61,0.00,,,0.00,open2300-1.11,2013-02-21 01:37:00,
2013-02-20 19:47:00,17.8,6.6,30.38,NNW,337,0.0,0.0,61,0.00,,,0.00,open2300-1.11,2013-02-21 01:47:00,
2013-02-20 19:57:00,17.4,6.2,30.38,NNW,337,0.0,0.0,61,0.00,,,0.00,open2300-1.11,2013-02-21 01:57:00,
2013-02-20 20:07:00,17.4,6.2,30.37,NNW,337,0.0,0.0,61,0.00,,,0.00,open2300-1.11,2013-02-21 02:07:00,
2013-02-20 20:17:00,177.6,99.9,30.38,NNW,337,0.0,0.0,100,0.00,,,0.00,open2300-1.11,2013-02-21 02:17:00,
2013-02-20 20:27:00,177.6,99.9,30.37,NNW,337,0.0,0.0,100,0.00,,,0.00,open2300-1.11,2013-02-21 02:27:00,
2013-02-20 20:37:00,177.6,99.9,30.37,NNW,337,0.0,0.0,100,0.00,,,0.00,open2300-1.11,2013-02-21 02:37:00,
2013-02-20 20:47:00,177.6,99.9,30.37,NNW,337,0.0,0.0,100,0.00,,,0.00,open2300-1.11,2013-02-21 02:47:00,
2013-02-20 20:57:00,16.5,5.7,30.37,NNW,337,0.0,0.0,62,0.00,,,0.00,open2300-1.11,2013-02-21 02:57:00,
2013-02-20 21:07:00,16.3,5.5,30.36,NNW,337,0.0,0.0,62,0.00,,,0.00,open2300-1.11,2013-02-21 03:07:00,
2013-02-20 21:17:00,15.8,5.0,30.36,NNW,337,0.0,0.0,62,0.00,,,0.00,open2300-1.11,2013-02-21 03:17:00,
2013-02-20 21:27:00,15.6,4.8,30.37,NNW,337,0.0,0.0,62,0.00,,,0.00,open2300-1.11,2013-02-21 03:27:00,
2013-02-20 21:37:00,15.6,4.8,30.38,NNW,337,0.0,0.0,62,0.00,,,0.00,open2300-1.11,2013-02-21 03:37:00,
2013-02-20 21:47:00,15.8,5.0,30.37,NNW,337,0.0,0.0,62,0.00,,,0.00,open2300-1.11,2013-02-21 03:47:00,
2013-02-20 21:57:00,16.0,5.5,30.38,NNW,337,0.0,0.0,63,0.00,,,0.00,open2300-1.11,2013-02-21 03:57:00,
2013-02-20 22:07:00,15.6,4.8,30.38,NNW,337,0.0,0.0,62,0.00,,,0.00,open2300-1.11,2013-02-21 04:07:00,
2013-02-20 22:17:00,15.3,4.5,30.38,NNW,337,0.0,0.0,62,0.00,,,0.00,open2300-1.11,2013-02-21 04:17:00,
2013-02-20 22:27:00,15.1,4.7,30.39,NNW,337,0.0,0.0,63,0.00,,,0.00,open2300-1.11,2013-02-21 04:27:00,
2013-02-20 22:37:00,14.9,4.5,30.39,NNW,337,0.0,0.0,63,0.00,,,0.00,open2300-1.11,2013-02-21 04:37:00,
2013-02-20 22:47:00,14.7,4.3,30.39,NNW,337,0.0,0.0,63,0.00,,,0.00,open2300-1.11,2013-02-21 04:47:00,
2013-02-20 22:57:00,14.5,4.2,30.40,NNW,337,0.0,0.0,63,0.00,,,0.00,open2300-1.11,2013-02-21 04:57:00,
2013-02-20 23:07:00,14.2,4.2,30.40,NNW,337,0.0,0.0,64,0.00,,,0.00,open2300-1.11,2013-02-21 05:07:00,
2013-02-20 23:17:00,13.8,3.8,30.40,NNW,337,0.0,0.0,64,0.00,,,0.00,open2300-1.11,2013-02-21 05:17:00,
2013-02-20 23:27:00,13.8,3.8,30.40,NNW,337,0.0,0.0,64,0.00,,,0.00,open2300-1.11,2013-02-21 05:27:00,
2013-02-20 23:37:00,177.6,99.9,30.40,NNW,337,0.0,0.0,100,0.00,,,0.00,open2300-1.11,2013-02-21 05:37:00,
2013-02-20 23:47:00,177.6,99.9,30.40,NNW,337,0.0,0.0,100,0.00,,,0.00,open2300-1.11,2013-02-21 05:47:00,